Time;durP1;ratioP1;P1;durP2;ratioP2;P2;SDS_P1;SDS_P2;PMS_P1;PMS_P2;Temp;Humidity;BMP_temperature;BMP_pressure;BME280_temperature;BME280_humidity;BME280_pressure;Samples;Min_cycle;Max_cycle;Signal;HPM_P1;HPM_P2
2022/03/21 00:02:05;;;;;;;;;;;;;;;-0.27;52.72;102242.78;6193729;23;19916;-91
2022/03/21 00:04:30;;;;;;;;;;;;;;;-0.33;52.21;102242.13;6169481;23;19922;-92
2022/03/21 00:06:56;;;;;;;;;;;;;;;-0.39;52.30;102243.34;6168751;23;19926;-91
2022/03/21 00:09:21;;;;;;;;;;;;;;;-0.46;52.87;102248.44;6169347;23;20250;-92
2022/03/21 00:11:47;;;;;;;;;;;;;;;-0.41;53.10;102248.31;6218282;23;19990;-92
2022/03/21 00:14:12;;;;;;;;;;;;;;;-0.36;53.13;102245.44;6169201;23;20245;-92
2022/03/21 00:16:39;;;;;;;;;;;;;;;-0.37;52.99;102243.84;6192340;23;20374;-88
2022/03/21 00:19:04;;;;;;;;;;;;;;;-0.35;53.60;102244.34;6168237;23;19912;-93
2022/03/21 00:21:30;;;;;;;;;;;;;;;-0.42;53.55;102245.88;6194137;23;19959;-92
2022/03/21 00:23:55;;;;;;;;;;;;;;;-0.41;53.46;102248.31;6168876;23;19920;-92
2022/03/21 00:26:20;;;;;;;;;;;;;;;-0.41;52.82;102248.31;6194241;23;19923;-92
2022/03/21 00:28:46;;;;;;;;;;;;;;;-0.35;52.09;102241.59;6218832;23;19922;-94
2022/03/21 00:31:11;;;;;;;;;;;;;;;-0.13;50.14;102246.25;6169710;23;19919;-92
2022/03/21 00:33:37;;;;;;;;;;;;;;;-0.05;50.46;102243.59;6168780;23;19915;-88
2022/03/21 00:36:05;;;;;;;;;;;;;;;-0.07;51.26;102245.81;6168666;23;19912;-92
2022/03/21 00:38:30;;;;;;;;;;;;;;;-0.17;51.46;102237.91;6169817;23;19915;-92
2022/03/21 00:40:56;;;;;;;;;;;;;;;-0.28;52.29;102233.78;6168552;23;19926;-93
2022/03/21 00:43:22;;;;;;;;;;;;;;;-0.34;53.54;102243.22;6168503;23;19977;-91
2022/03/21 00:45:49;;;;;;;;;;;;;;;-0.39;53.88;102248.78;6169158;23;19923;-92
2022/03/21 00:48:14;;;;;;;;;;;;;;;-0.47;55.14;102244.06;6193668;23;19998;-92
2022/03/21 00:50:40;;;;;;;;;;;;;;;-0.51;55.21;102243.09;6168535;23;19958;-91
2022/03/21 00:53:05;;;;;;;;;;;;;;;-0.68;55.39;102248.38;6168772;23;19923;-91
2022/03/21 00:55:31;;;;;;;;;;;;;;;-0.65;55.84;102239.63;6218752;23;19915;-92
2022/03/21 00:57:57;;;;;;;;;;;;;;;-0.66;55.49;102235.28;6168918;23;19920;-92
2022/03/21 01:00:24;;;;;;;;;;;;;;;-0.80;54.61;102243.47;6218516;23;19919;-93
2022/03/21 01:02:50;;;;;;;;;;;;;;;-0.75;55.00;102237.09;6169914;23;19928;-92
2022/03/21 01:05:15;;;;;;;;;;;;;;;-0.74;54.38;102233.28;6218732;23;19938;-92
2022/03/21 01:07:41;;;;;;;;;;;;;;;-0.71;53.92;102238.09;6193151;23;20345;-93
2022/03/21 01:10:08;;;;;;;;;;;;;;;-0.61;53.67;102213.34;6218561;23;19915;-91
2022/03/21 01:12:33;;;;;;;;;;;;;;;-0.53;53.38;102231.69;6193554;23;19915;-92
2022/03/21 01:14:59;;;;;;;;;;;;;;;-0.53;52.92;102234.44;6194710;23;19911;-92
2022/03/21 01:17:24;;;;;;;;;;;;;;;-0.64;52.50;102227.56;6221023;23;19915;-93
2022/03/21 01:19:50;;;;;;;;;;;;;;;-0.73;52.76;102219.34;6171576;23;20253;-93
2022/03/21 01:22:15;;;;;;;;;;;;;;;-0.82;53.38;102223.09;6195930;23;19927;-93
2022/03/21 01:24:41;;;;;;;;;;;;;;;-0.84;53.58;102222.59;6220923;23;19922;-91
2022/03/21 01:27:06;;;;;;;;;;;;;;;-0.95;53.60;102224.75;6195962;23;19990;-93
2022/03/21 01:29:32;;;;;;;;;;;;;;;-1.01;53.84;102223.28;6195960;23;20231;-92
2022/03/21 01:31:58;;;;;;;;;;;;;;;-1.06;54.19;102215.19;6194875;23;19924;-87
2022/03/21 01:34:23;;;;;;;;;;;;;;;-1.17;54.51;102213.81;6194869;23;19939;-88
2022/03/21 01:36:49;;;;;;;;;;;;;;;-1.25;55.15;102209.09;6193874;23;19918;-88
2022/03/21 01:39:14;;;;;;;;;;;;;;;-1.33;55.90;102220.69;6193799;23;19922;-87
2022/03/21 01:41:39;;;;;;;;;;;;;;;-1.41;56.64;102220.28;6193737;23;19918;-88
2022/03/21 01:44:06;;;;;;;;;;;;;;;-1.52;57.82;102213.44;6193743;23;19961;-88
2022/03/21 01:46:32;;;;;;;;;;;;;;;-1.52;57.97;102212.63;6245717;23;19915;-87
2022/03/21 01:48:57;;;;;;;;;;;;;;;-1.52;57.68;102207.97;6245013;23;19995;-88
2022/03/21 01:51:23;;;;;;;;;;;;;;;-1.45;57.34;102207.56;6246079;23;19926;-93
2022/03/21 01:56:33;;;;;;;;;;;;;;;-1.48;58.33;102214.44;6199852;23;20341;-92
2022/03/21 01:58:59;;;;;;;;;;;;;;;-1.53;58.38;102205.56;6196019;23;19946;-94
2022/03/21 02:01:24;;;;;;;;;;;;;;;-1.57;58.42;102208.06;6196517;23;19915;-92
2022/03/21 02:03:50;;;;;;;;;;;;;;;-1.65;58.66;102213.41;6170957;23;19916;-93
2022/03/21 02:06:16;;;;;;;;;;;;;;;-1.65;58.90;102218.84;6171236;23;19946;-92
2022/03/21 02:08:42;;;;;;;;;;;;;;;-1.71;58.76;102214.63;6170916;23;19915;-91
2022/03/21 02:11:07;;;;;;;;;;;;;;;-1.75;58.91;102214.44;6170231;23;19994;-87
2022/03/21 02:13:34;;;;;;;;;;;;;;;-1.76;58.96;102203.84;6245737;23;19915;-87
2022/03/21 02:15:59;;;;;;;;;;;;;;;-1.75;58.66;102203.56;6245116;23;19916;-88
2022/03/21 02:18:25;;;;;;;;;;;;;;;-1.71;58.99;102198.31;6218251;23;19961;-87
2022/03/21 02:20:50;;;;;;;;;;;;;;;-1.72;59.18;102208.38;6193595;23;19919;-88
2022/03/21 02:23:16;;;;;;;;;;;;;;;-1.79;58.55;102204.44;6218054;23;20364;-87
2022/03/21 02:25:42;;;;;;;;;;;;;;;-1.85;59.28;102214.63;6218002;23;20373;-88
2022/03/21 02:28:08;;;;;;;;;;;;;;;-1.85;60.15;102213.81;6218457;23;19930;-93
2022/03/21 02:30:35;;;;;;;;;;;;;;;-1.89;59.46;102198.09;6194225;23;19916;-87
2022/03/21 02:33:01;;;;;;;;;;;;;;;-1.88;59.45;102201.63;6218333;23;20012;-87
2022/03/21 02:35:26;;;;;;;;;;;;;;;-1.93;59.53;102199.81;6193060;23;19955;-86
2022/03/21 02:37:51;;;;;;;;;;;;;;;-1.98;59.91;102204.53;6218283;23;19954;-87
2022/03/21 02:40:17;;;;;;;;;;;;;;;-2.14;60.93;102198.53;6218044;23;19916;-87
2022/03/21 02:42:43;;;;;;;;;;;;;;;-2.21;61.28;102205.47;6193111;23;19953;-86
2022/03/21 02:45:08;;;;;;;;;;;;;;;-2.21;61.06;102200.84;6168261;23;19922;-87
2022/03/21 02:47:34;;;;;;;;;;;;;;;-2.18;60.69;102194.03;6218996;23;19915;-92
2022/03/21 02:50:00;;;;;;;;;;;;;;;-2.18;60.75;102197.53;6195663;23;20510;-93
2022/03/21 02:52:25;;;;;;;;;;;;;;;-2.28;60.97;102200.44;6198781;23;19916;-94
2022/03/21 02:54:51;;;;;;;;;;;;;;;-2.32;61.02;102194.00;6199310;23;19911;-93
2022/03/21 02:57:16;;;;;;;;;;;;;;;-2.27;61.64;102184.94;6178177;23;19916;-92
2022/03/21 02:59:42;;;;;;;;;;;;;;;-2.34;61.56;102203.56;6179142;23;19916;-93
2022/03/21 03:02:08;;;;;;;;;;;;;;;-2.29;61.34;102201.53;6205168;23;19923;-93
2022/03/21 03:04:33;;;;;;;;;;;;;;;-2.24;61.23;102198.75;6180466;23;19923;-93
2022/03/21 03:06:58;;;;;;;;;;;;;;;-2.29;61.15;102187.13;6175409;23;19916;-87
2022/03/21 03:09:24;;;;;;;;;;;;;;;-2.32;60.67;102199.44;6173706;23;19922;-92
2022/03/21 03:11:50;;;;;;;;;;;;;;;-2.40;61.32;102200.09;6199924;23;19922;-94
2022/03/21 03:14:15;;;;;;;;;;;;;;;-2.39;61.72;102201.72;6199174;23;19942;-92
2022/03/21 03:16:40;;;;;;;;;;;;;;;-2.37;62.75;102191.34;6198224;23;19912;-92
2022/03/21 03:19:06;;;;;;;;;;;;;;;-2.38;61.64;102209.56;6198438;23;19954;-91
2022/03/21 03:21:43;;;;;;;;;;;;;;;-2.44;62.20;102199.91;6249385;23;19919;-94
2022/03/21 03:24:09;;;;;;;;;;;;;;;-2.49;62.09;102202.69;6198649;23;19922;-92
2022/03/21 03:26:34;;;;;;;;;;;;;;;-2.55;62.26;102200.38;6223869;23;19915;-93
2022/03/21 03:29:00;;;;;;;;;;;;;;;-2.57;62.59;102203.38;6193616;23;19911;-86
2022/03/21 03:31:25;;;;;;;;;;;;;;;-2.55;62.21;102211.22;6192556;23;20366;-86
2022/03/21 03:33:51;;;;;;;;;;;;;;;-2.59;62.00;102207.50;6167585;23;20338;-87
2022/03/21 03:36:17;;;;;;;;;;;;;;;-2.61;61.84;102206.97;6217636;22;20037;-86
2022/03/21 03:38:43;;;;;;;;;;;;;;;-2.64;62.08;102197.50;6193421;23;20273;-85
2022/03/21 03:41:09;;;;;;;;;;;;;;;-2.79;62.06;102205.09;6218115;23;19926;-86
2022/03/21 03:43:35;;;;;;;;;;;;;;;-2.80;62.02;102198.03;6167699;23;19916;-86
2022/03/21 03:46:01;;;;;;;;;;;;;;;-2.77;62.36;102192.81;6197048;23;19916;-93
2022/03/21 03:48:26;;;;;;;;;;;;;;;-2.80;62.34;102193.41;6193431;23;19911;-86
2022/03/21 03:50:52;;;;;;;;;;;;;;;-2.74;63.04;102189.50;6192024;23;19916;-86
2022/03/21 03:53:18;;;;;;;;;;;;;;;-2.74;61.91;102186.78;6167137;23;19916;-86
2022/03/21 03:55:43;;;;;;;;;;;;;;;-2.79;60.73;102196.94;6192673;23;19915;-86
2022/03/21 03:58:09;;;;;;;;;;;;;;;-2.85;61.71;102190.75;6192424;23;19916;-86
2022/03/21 04:00:35;;;;;;;;;;;;;;;-2.88;62.35;102194.09;6215995;23;19920;-85
2022/03/21 04:05:45;;;;;;;;;;;;;;;-2.93;62.49;102194.97;6206704;23;19951;-92
2022/03/21 04:08:10;;;;;;;;;;;;;;;-2.89;62.74;102201.41;6258574;23;20249;-93
2022/03/21 04:10:35;;;;;;;;;;;;;;;-2.90;62.49;102199.78;6182039;23;20014;-94
2022/03/21 04:13:01;;;;;;;;;;;;;;;-2.92;62.44;102198.47;6208657;23;19943;-94
2022/03/21 04:15:26;;;;;;;;;;;;;;;-2.97;62.63;102204.78;6183422;23;19921;-93
2022/03/21 04:17:53;;;;;;;;;;;;;;;-3.02;62.06;102202.13;6231095;23;19923;-95
2022/03/21 04:20:18;;;;;;;;;;;;;;;-3.09;62.37;102200.91;6180095;23;19938;-93
2022/03/21 04:22:43;;;;;;;;;;;;;;;-3.14;62.39;102204.47;6224545;23;19920;-85
2022/03/21 04:25:13;;;;;;;;;;;;;;;-3.18;62.25;102208.88;6174355;23;19966;-93
2022/03/21 04:27:39;;;;;;;;;;;;;;;-3.24;61.63;102207.34;6201420;23;19915;-92
2022/03/21 04:30:05;;;;;;;;;;;;;;;-3.23;61.72;102205.44;6217524;23;19927;-95
2022/03/21 04:32:30;;;;;;;;;;;;;;;-3.23;61.72;102206.22;6231766;23;19943;-94
2022/03/21 04:34:56;;;;;;;;;;;;;;;-3.22;61.26;102202.41;6232907;23;19927;-94
2022/03/21 04:37:21;;;;;;;;;;;;;;;-3.23;61.08;102195.38;6183033;23;19912;-93
2022/03/21 04:39:47;;;;;;;;;;;;;;;-3.20;61.39;102194.81;6235124;23;20326;-93
2022/03/21 04:42:13;;;;;;;;;;;;;;;-3.11;60.52;102193.03;6207670;23;19916;-95
2022/03/21 04:44:39;;;;;;;;;;;;;;;-3.09;60.90;102203.59;6198266;23;19912;-85
2022/03/21 04:47:08;;;;;;;;;;;;;;;-3.24;62.80;102207.34;6216500;23;20015;-85
2022/03/21 04:49:33;;;;;;;;;;;;;;;-3.29;62.75;102207.41;6166618;23;20237;-85
2022/03/21 04:51:59;;;;;;;;;;;;;;;-3.29;62.76;102207.41;6191427;23;19998;-85
2022/03/21 04:54:28;;;;;;;;;;;;;;;-3.24;63.55;102214.69;6191213;23;20352;-85
2022/03/21 04:56:54;;;;;;;;;;;;;;;-3.28;63.44;102214.47;6217384;23;19926;-86
2022/03/21 04:59:19;;;;;;;;;;;;;;;-3.29;62.83;102218.25;6216453;23;19947;-85
2022/03/21 05:01:44;;;;;;;;;;;;;;;-3.40;63.33;102219.50;6195226;23;19915;-86
2022/03/21 05:04:10;;;;;;;;;;;;;;;-3.41;63.60;102226.00;6202251;23;19915;-95
2022/03/21 05:06:35;;;;;;;;;;;;;;;-3.36;63.88;102225.97;6228439;23;19916;-95
2022/03/21 05:09:03;;;;;;;;;;;;;;;-3.38;63.48;102228.13;6226521;23;19916;-94
2022/03/21 05:11:29;;;;;;;;;;;;;;;-3.42;64.35;102233.34;6199291;23;19916;-93
2022/03/21 05:13:55;;;;;;;;;;;;;;;-3.38;64.67;102237.09;6225426;23;19919;-95
2022/03/21 05:16:21;;;;;;;;;;;;;;;-3.33;64.40;102244.38;6224015;23;20370;-93
2022/03/21 05:18:47;;;;;;;;;;;;;;;-3.31;64.33;102247.59;6195998;23;20359;-93
2022/03/21 05:21:12;;;;;;;;;;;;;;;-3.36;64.39;102247.66;6216252;23;19994;-87
2022/03/21 05:31:50;;;;;;;;;;;;;;;-3.22;64.66;102247.75;6214741;23;19987;-85
2022/03/21 05:37:00;;;;;;;;;;;;;;;-3.01;63.94;102251.81;6219643;23;19922;-85
2022/03/21 05:39:25;;;;;;;;;;;;;;;-2.87;64.06;102248.09;6164544;23;19915;-85
2022/03/21 05:41:53;;;;;;;;;;;;;;;-2.73;63.29;102247.34;6189993;23;19973;-87
2022/03/21 05:44:19;;;;;;;;;;;;;;;-2.65;62.51;102250.22;6166812;23;19943;-87
2022/03/21 05:46:45;;;;;;;;;;;;;;;-2.55;62.32;102254.72;6216239;23;19916;-87
2022/03/21 05:49:10;;;;;;;;;;;;;;;-2.53;62.05;102250.59;6214092;22;20032;-86
2022/03/21 05:51:36;;;;;;;;;;;;;;;-2.46;61.62;102248.28;6240917;23;19947;-85
2022/03/21 05:54:03;;;;;;;;;;;;;;;-2.37;61.57;102251.97;6212480;23;19919;-87
2022/03/21 05:56:29;;;;;;;;;;;;;;;-2.21;61.06;102255.22;6211938;23;20401;-86
2022/03/21 05:58:55;;;;;;;;;;;;;;;-2.04;61.10;102254.69;6213173;23;19946;-86
2022/03/21 06:01:23;;;;;;;;;;;;;;;-1.82;60.08;102257.56;6215832;23;19982;-86
2022/03/21 06:03:52;;;;;;;;;;;;;;;-1.64;59.78;102264.03;6188609;23;19939;-92
2022/03/21 06:06:18;;;;;;;;;;;;;;;-1.40;58.80;102259.19;6168057;23;21044;-91
2022/03/21 06:08:44;;;;;;;;;;;;;;;-1.16;58.31;102259.78;6167141;23;19926;-92
2022/03/21 06:11:09;;;;;;;;;;;;;;;-1.00;57.81;102260.28;6216246;23;20214;-90
2022/03/21 06:13:36;;;;;;;;;;;;;;;-0.80;56.80;102264.47;6198114;23;19979;-90
2022/03/21 06:16:03;;;;;;;;;;;;;;;-0.68;55.73;102260.09;6222108;23;19947;-90
2022/03/21 06:18:28;;;;;;;;;;;;;;;-0.48;55.57;102264.28;6220969;23;19946;-87
2022/03/21 06:20:54;;;;;;;;;;;;;;;-0.24;54.93;102262.06;6191340;23;19923;-89
2022/03/21 06:23:19;;;;;;;;;;;;;;;-0.01;54.36;102258.22;6215726;23;19926;-90
2022/03/21 06:25:45;;;;;;;;;;;;;;;0.16;53.31;102256.72;6189683;23;19927;-90
2022/03/21 06:28:10;;;;;;;;;;;;;;;0.38;53.03;102265.63;6217783;23;19986;-91
2022/03/21 06:30:37;;;;;;;;;;;;;;;0.69;52.95;102264.81;6196839;23;19919;-90
2022/03/21 06:33:02;;;;;;;;;;;;;;;1.00;52.10;102271.00;6194169;23;19926;-91
2022/03/21 06:35:28;;;;;;;;;;;;;;;1.27;51.38;102264.44;6218816;23;20010;-91
2022/03/21 06:37:53;;;;;;;;;;;;;;;1.52;50.92;102265.59;6218756;23;19982;-87
2022/03/21 06:40:20;;;;;;;;;;;;;;;1.76;50.42;102266.72;6192670;23;19939;-92
2022/03/21 06:42:45;;;;;;;;;;;;;;;2.02;50.00;102269.41;6244784;23;20346;-90
2022/03/21 06:45:11;;;;;;;;;;;;;;;2.16;49.19;102256.31;6193565;23;19911;-90
2022/03/21 06:47:36;;;;;;;;;;;;;;;2.35;49.49;102266.88;6193986;23;20246;-91
2022/03/21 06:50:02;;;;;;;;;;;;;;;2.57;49.04;102266.66;6195080;23;19915;-92
2022/03/21 06:52:27;;;;;;;;;;;;;;;2.78;48.27;102270.28;6216123;23;20227;-91
2022/03/21 06:54:53;;;;;;;;;;;;;;;3.05;48.17;102281.88;6217343;23;20231;-92
2022/03/21 06:57:18;;;;;;;;;;;;;;;3.25;47.69;102272.88;6191157;23;19923;-86
2022/03/21 06:59:45;;;;;;;;;;;;;;;3.45;47.51;102271.28;6191870;23;20373;-86
2022/03/21 07:02:11;;;;;;;;;;;;;;;3.69;47.42;102266.72;6217094;23;19916;-86
2022/03/21 07:04:36;;;;;;;;;;;;;;;3.86;46.80;102281.44;6192591;23;20342;-86
2022/03/21 07:07:02;;;;;;;;;;;;;;;3.95;46.01;102280.22;6192892;23;19916;-86
2022/03/21 07:09:27;;;;;;;;;;;;;;;4.08;46.41;102278.34;6166900;23;20337;-86
2022/03/21 07:11:53;;;;;;;;;;;;;;;4.26;45.86;102278.94;6190145;23;19969;-85
2022/03/21 07:14:19;;;;;;;;;;;;;;;4.43;45.72;102279.56;6216438;23;19916;-92
2022/03/21 07:16:44;;;;;;;;;;;;;;;4.56;44.65;102288.63;6192721;23;19934;-90
2022/03/21 07:19:10;;;;;;;;;;;;;;;4.76;45.15;102281.41;6166766;23;19911;-92
2022/03/21 07:21:35;;;;;;;;;;;;;;;5.03;44.41;102276.03;6168041;23;20292;-91
2022/03/21 07:24:01;;;;;;;;;;;;;;;5.34;43.61;102272.66;6217474;23;19927;-90
2022/03/21 07:26:26;;;;;;;;;;;;;;;5.64;42.88;102281.41;6218171;23;19920;-91
2022/03/21 07:28:51;;;;;;;;;;;;;;;5.88;42.33;102275.84;6244792;23;19919;-90
2022/03/21 07:31:17;;;;;;;;;;;;;;;6.16;40.78;102273.06;6217981;23;19919;-88
2022/03/21 07:33:42;;;;;;;;;;;;;;;6.43;40.79;102274.19;6192753;23;19990;-87
2022/03/21 07:36:08;;;;;;;;;;;;;;;6.72;40.41;102272.91;6191930;23;19943;-87
2022/03/21 07:38:34;;;;;;;;;;;;;;;6.79;39.34;102267.59;6217181;23;19916;-85
2022/03/21 07:41:00;;;;;;;;;;;;;;;7.09;39.01;102276.97;6217803;23;19919;-85
2022/03/21 07:43:25;;;;;;;;;;;;;;;7.16;36.61;102277.13;6215270;23;19915;-86
2022/03/21 07:48:34;;;;;;;;;;;;;;;7.23;33.76;102274.56;6221189;23;19915;-85
2022/03/21 07:51:00;;;;;;;;;;;;;;;7.26;33.02;102276.59;6190180;23;20322;-86
2022/03/21 07:53:25;;;;;;;;;;;;;;;7.30;33.34;102271.94;6190631;23;20292;-86
2022/03/21 07:55:51;;;;;;;;;;;;;;;7.62;33.44;102272.63;6191319;23;19915;-90
2022/03/21 07:58:16;;;;;;;;;;;;;;;7.45;33.17;102273.84;6216033;23;20006;-89
2022/03/21 08:00:42;;;;;;;;;;;;;;;7.38;33.38;102276.47;6216357;23;19915;-90
2022/03/21 08:03:11;;;;;;;;;;;;;;;7.71;32.99;102258.59;6216091;23;19974;-90
2022/03/21 08:05:36;;;;;;;;;;;;;;;7.97;33.26;102251.22;6218595;23;19951;-90
2022/03/21 08:08:02;;;;;;;;;;;;;;;8.03;32.76;102248.19;6217276;23;19915;-89
2022/03/21 08:10:29;;;;;;;;;;;;;;;8.27;33.28;102248.63;6167588;23;20368;-90
2022/03/21 08:12:56;;;;;;;;;;;;;;;8.50;32.85;102256.16;6167779;23;19996;-90
2022/03/21 08:15:21;;;;;;;;;;;;;;;8.58;32.96;102252.34;6192997;23;19911;-85
2022/03/21 08:17:56;;;;;;;;;;;;;;;8.82;32.73;102244.44;6217653;23;20285;-85
2022/03/21 08:20:21;;;;;;;;;;;;;;;8.95;30.29;102245.03;6217642;23;19916;-85
2022/03/21 08:22:47;;;;;;;;;;;;;;;9.07;30.03;102238.47;6217301;23;20420;-85
2022/03/21 08:25:15;;;;;;;;;;;;;;;9.05;28.44;102238.88;6217046;23;19987;-85
2022/03/21 08:27:41;;;;;;;;;;;;;;;9.10;28.07;102252.38;6217861;23;19911;-85
2022/03/21 08:30:07;;;;;;;;;;;;;;;9.32;27.75;102237.66;6192092;23;19973;-85
2022/03/21 08:32:32;;;;;;;;;;;;;;;9.55;27.91;102245.06;6217690;23;19920;-89
2022/03/21 08:34:58;;;;;;;;;;;;;;;9.63;27.25;102241.22;6244152;23;19922;-89
2022/03/21 08:37:25;;;;;;;;;;;;;;;9.58;26.52;102239.59;6243771;23;20302;-90
2022/03/21 08:39:50;;;;;;;;;;;;;;;9.81;27.12;102239.47;6243964;23;20364;-89
2022/03/21 08:42:17;;;;;;;;;;;;;;;9.94;25.06;102234.47;6216798;23;19998;-89
2022/03/21 08:44:42;;;;;;;;;;;;;;;9.91;26.44;102240.78;6217092;23;19915;-90
2022/03/21 08:47:08;;;;;;;;;;;;;;;10.10;24.40;102237.81;6244157;23;20354;-89
2022/03/21 08:49:37;;;;;;;;;;;;;;;10.16;24.03;102239.88;6191778;23;19911;-85
2022/03/21 08:52:03;;;;;;;;;;;;;;;10.09;24.24;102237.00;6217142;23;19915;-85
2022/03/21 08:54:28;;;;;;;;;;;;;;;10.15;24.58;102238.25;6191849;23;19954;-85
2022/03/21 08:56:54;;;;;;;;;;;;;;;10.28;25.22;102239.59;6217037;23;19916;-85
2022/03/21 08:59:20;;;;;;;;;;;;;;;10.27;22.89;102232.44;6191794;23;19916;-86
2022/03/21 09:01:45;;;;;;;;;;;;;;;9.97;23.12;102234.50;6192053;23;19994;-86
2022/03/21 09:04:12;;;;;;;;;;;;;;;9.81;22.56;102233.91;6216932;23;19915;-85
2022/03/21 09:06:37;;;;;;;;;;;;;;;9.90;21.69;102231.66;6192493;23;19923;-85
2022/03/21 09:09:03;;;;;;;;;;;;;;;9.72;22.56;102233.41;6216833;23;19915;-86
2022/03/21 09:11:28;;;;;;;;;;;;;;;9.72;22.49;102234.22;6191792;23;20417;-86
2022/03/21 09:13:54;;;;;;;;;;;;;;;9.90;22.36;102234.44;6166632;23;20254;-85
2022/03/21 09:16:19;;;;;;;;;;;;;;;9.72;21.60;102230.63;6191892;23;19974;-85
2022/03/21 09:18:45;;;;;;;;;;;;;;;9.96;22.21;102230.13;6243398;23;20307;-85
2022/03/21 09:21:11;;;;;;;;;;;;;;;10.05;21.74;102227.84;6217119;23;19916;-85
2022/03/21 09:23:37;;;;;;;;;;;;;;;9.98;21.62;102230.56;6216878;23;19919;-86
2022/03/21 09:26:03;;;;;;;;;;;;;;;9.48;22.48;102228.38;6217049;23;19919;-85
2022/03/21 09:28:29;;;;;;;;;;;;;;;8.98;23.00;102226.91;6191328;23;19926;-88
2022/03/21 09:30:54;;;;;;;;;;;;;;;9.17;23.22;102230.34;6191957;23;19920;-85
2022/03/21 09:33:20;;;;;;;;;;;;;;;9.20;22.72;102229.59;6191630;23;19939;-85
2022/03/21 09:35:47;;;;;;;;;;;;;;;9.46;23.69;102225.19;6218143;23;19965;-86
2022/03/21 09:38:14;;;;;;;;;;;;;;;9.65;22.20;102225.03;6193968;23;19911;-85
2022/03/21 09:40:41;;;;;;;;;;;;;;;9.74;22.55;102225.53;6194090;23;20234;-85
2022/03/21 09:43:07;;;;;;;;;;;;;;;9.89;22.18;102227.28;6193925;23;19926;-86
2022/03/21 09:45:32;;;;;;;;;;;;;;;10.42;22.70;102221.50;6168673;23;19912;-85
2022/03/21 09:48:12;;;;;;;;;;;;;;;10.31;21.43;102210.31;6219231;23;19924;-86
2022/03/21 09:50:39;;;;;;;;;;;;;;;9.66;22.00;102218.31;6196371;23;19920;-86
2022/03/21 09:53:05;;;;;;;;;;;;;;;9.89;22.17;102213.41;6194049;23;20257;-86
2022/03/21 09:55:31;;;;;;;;;;;;;;;9.86;21.47;102208.63;6193384;23;19916;-85
2022/03/21 09:57:56;;;;;;;;;;;;;;;10.17;22.34;102205.41;6245815;23;19942;-86
2022/03/21 10:00:22;;;;;;;;;;;;;;;10.19;21.35;102205.81;6218347;23;19912;-85
2022/03/21 10:02:47;;;;;;;;;;;;;;;10.18;21.75;102206.22;6245658;23;19949;-86
2022/03/21 10:05:31;;;;;;;;;;;;;;;10.12;21.86;102211.28;6218557;23;19923;-86
2022/03/21 10:08:16;;;;;;;;;;;;;;;10.39;22.87;102200.06;6245490;23;19926;-85
2022/03/21 10:10:57;;;;;;;;;;;;;;;10.16;21.35;102198.28;6218707;23;19915;-85
2022/03/21 10:13:23;;;;;;;;;;;;;;;10.50;20.96;102206.50;6218464;23;19990;-86
2022/03/21 10:15:49;;;;;;;;;;;;;;;10.46;20.55;102205.66;6218650;23;19930;-86
2022/03/21 10:18:14;;;;;;;;;;;;;;;10.94;21.58;102203.63;6193749;23;19915;-86
2022/03/21 10:20:40;;;;;;;;;;;;;;;10.79;19.85;102197.22;6217945;23;19991;-86
2022/03/21 10:23:16;;;;;;;;;;;;;;;10.48;20.31;102192.19;6218701;23;19920;-86
2022/03/21 10:25:42;;;;;;;;;;;;;;;10.63;20.32;102188.38;6193838;23;20338;-86
2022/03/21 10:28:07;;;;;;;;;;;;;;;11.00;20.24;102191.00;6219382;23;19918;-86
2022/03/21 10:30:32;;;;;;;;;;;;;;;11.04;20.60;102187.03;6217920;23;19970;-86
2022/03/21 10:32:58;;;;;;;;;;;;;;;11.35;20.59;102176.47;6218668;23;20385;-86
2022/03/21 10:35:26;;;;;;;;;;;;;;;11.49;21.31;102174.53;6218158;23;19911;-86
2022/03/21 10:37:56;;;;;;;;;;;;;;;11.70;20.40;102165.47;6194057;23;19915;-86
2022/03/21 10:40:23;;;;;;;;;;;;;;;11.72;19.94;102160.34;6193097;23;19943;-86
2022/03/21 10:42:55;;;;;;;;;;;;;;;11.77;19.73;102156.41;6218763;23;19955;-86
2022/03/21 10:45:24;;;;;;;;;;;;;;;11.88;20.50;102158.00;6244707;23;19972;-86
2022/03/21 10:47:52;;;;;;;;;;;;;;;11.78;20.25;102156.00;6218069;23;19970;-88
2022/03/21 10:50:31;;;;;;;;;;;;;;;12.02;20.32;102141.31;6217508;23;19916;-89
2022/03/21 10:53:10;;;;;;;;;;;;;;;12.05;20.54;102139.75;6218433;23;19919;-89
2022/03/21 10:55:35;;;;;;;;;;;;;;;11.97;21.03;102132.59;6217673;23;19916;-89
2022/03/21 10:58:00;;;;;;;;;;;;;;;11.94;20.43;102133.38;6193649;23;19912;-89
2022/03/21 11:00:26;;;;;;;;;;;;;;;12.01;21.30;102136.94;6192229;23;19977;-88
2022/03/21 11:02:53;;;;;;;;;;;;;;;12.19;20.64;102138.94;6218072;23;19922;-89
2022/03/21 11:05:19;;;;;;;;;;;;;;;11.75;20.49;102131.75;6217523;23;20352;-89
2022/03/21 11:07:48;;;;;;;;;;;;;;;11.99;20.38;102131.00;6218087;23;19915;-88
2022/03/21 11:10:13;;;;;;;;;;;;;;;11.75;19.98;102131.75;6244282;23;19915;-89
2022/03/21 11:12:41;;;;;;;;;;;;;;;11.43;20.53;102134.44;6217997;23;19994;-88
2022/03/21 11:15:07;;;;;;;;;;;;;;;11.62;20.72;102130.50;6192981;23;19996;-89
2022/03/21 11:17:32;;;;;;;;;;;;;;;11.91;20.96;102123.84;6217790;23;19962;-89
2022/03/21 11:19:58;;;;;;;;;;;;;;;12.12;20.87;102118.28;6244508;23;20290;-89
2022/03/21 11:22:23;;;;;;;;;;;;;;;12.37;20.57;102109.13;6217832;23;19915;-88
2022/03/21 11:24:49;;;;;;;;;;;;;;;12.49;20.34;102117.06;6192939;23;20361;-87
2022/03/21 11:27:33;;;;;;;;;;;;;;;12.28;21.26;102115.09;6243235;23;20334;-87
2022/03/21 11:30:07;;;;;;;;;;;;;;;12.78;21.26;102104.66;6217793;23;19965;-87
2022/03/21 11:32:44;;;;;;;;;;;;;;;12.69;19.98;102101.53;6192305;23;20003;-86
2022/03/21 11:35:13;;;;;;;;;;;;;;;13.13;19.80;102103.00;6192697;23;19915;-87
2022/03/21 11:37:40;;;;;;;;;;;;;;;13.20;18.38;102097.38;6192767;23;20431;-86
2022/03/21 11:40:25;;;;;;;;;;;;;;;13.55;18.80;102097.19;6192689;23;20330;-87
2022/03/21 11:42:51;;;;;;;;;;;;;;;13.78;17.18;102094.66;6192885;23;19942;-88
2022/03/21 11:45:26;;;;;;;;;;;;;;;13.50;16.84;102094.84;6217758;23;19919;-87
2022/03/21 11:48:10;;;;;;;;;;;;;;;13.26;16.36;102085.41;6217491;23;19915;-86
2022/03/21 11:50:36;;;;;;;;;;;;;;;12.68;16.87;102099.94;6190284;23;19943;-86
2022/03/21 11:53:05;;;;;;;;;;;;;;;12.48;17.25;102090.44;6216120;23;19912;-85
2022/03/21 11:55:35;;;;;;;;;;;;;;;11.93;17.62;102092.88;6242527;23;19927;-86
2022/03/21 11:58:20;;;;;;;;;;;;;;;11.63;17.97;102095.97;6216388;23;19916;-86
2022/03/21 12:01:05;;;;;;;;;;;;;;;12.14;18.26;102085.28;6190378;23;19943;-86
2022/03/21 12:03:30;;;;;;;;;;;;;;;11.91;18.49;102079.34;6190792;23;19915;-89
2022/03/21 12:05:56;;;;;;;;;;;;;;;11.97;18.64;102065.84;6214623;23;19942;-89
2022/03/21 12:08:31;;;;;;;;;;;;;;;11.63;19.09;102080.09;6216066;23;19920;-88
2022/03/21 12:10:57;;;;;;;;;;;;;;;11.40;19.73;102064.97;6243140;23;19946;-88
2022/03/21 12:13:22;;;;;;;;;;;;;;;11.74;20.05;102068.19;6217054;23;20326;-88
2022/03/21 12:15:51;;;;;;;;;;;;;;;12.18;19.32;102067.78;6167196;23;19916;-89
2022/03/21 12:18:16;;;;;;;;;;;;;;;12.33;19.20;102050.72;6192204;23;19912;-88
2022/03/21 12:20:49;;;;;;;;;;;;;;;12.16;19.55;102062.66;6216099;23;19992;-87
2022/03/21 12:23:15;;;;;;;;;;;;;;;11.79;19.41;102059.47;6192239;23;19919;-89
2022/03/21 12:25:50;;;;;;;;;;;;;;;11.65;19.51;102054.66;6243724;23;20013;-89
2022/03/21 12:28:19;;;;;;;;;;;;;;;11.40;19.46;102049.09;6192487;23;19919;-89
2022/03/21 12:30:48;;;;;;;;;;;;;;;11.41;20.13;102055.41;6243270;23;20330;-88
2022/03/21 12:33:13;;;;;;;;;;;;;;;11.43;21.19;102042.72;6193468;23;19964;-88
2022/03/21 12:35:43;;;;;;;;;;;;;;;11.46;19.66;102046.69;6243587;23;19915;-89
2022/03/21 12:38:14;;;;;;;;;;;;;;;11.72;20.29;102040.81;6217868;23;19943;-89
2022/03/21 12:40:52;;;;;;;;;;;;;;;11.63;19.37;102040.38;6192627;23;19978;-86
2022/03/21 12:43:17;;;;;;;;;;;;;;;11.58;19.57;102032.41;6244344;23;19994;-87
2022/03/21 12:45:44;;;;;;;;;;;;;;;11.91;20.31;102026.50;6189759;23;19950;-87
2022/03/21 12:48:10;;;;;;;;;;;;;;;11.78;19.42;102033.66;6216601;23;19990;-86
2022/03/21 12:50:35;;;;;;;;;;;;;;;12.00;19.38;102034.44;6190280;23;19911;-86
2022/03/21 12:53:05;;;;;;;;;;;;;;;12.49;19.77;102025.22;6166763;23;20037;-87
2022/03/21 12:55:31;;;;;;;;;;;;;;;12.86;19.02;102017.09;6215457;23;19923;-87